Time;durP1;ratioP1;P1;durP2;ratioP2;P2;SDS_P1;SDS_P2;PMS_P1;PMS_P2;Temp;Humidity;BMP_temperature;BMP_pressure;BME280_temperature;BME280_humidity;BME280_pressure;Samples;Min_cycle;Max_cycle;Signal;HPM_P1;HPM_P2
2022/03/18 00:01:50;;;;;;;20.67;13.02;;;4.10;99.90;;;;;;4988058;28;20121;-51
2022/03/18 00:04:16;;;;;;;23.67;12.75;;;4.20;99.90;;;;;;4993165;28;20509;-53
2022/03/18 00:06:42;;;;;;;21.40;13.50;;;4.10;99.90;;;;;;4989135;28;20060;-49
2022/03/18 00:09:07;;;;;;;23.13;13.95;;;4.20;99.90;;;;;;4939383;28;20478;-53
2022/03/18 00:11:33;;;;;;;20.83;12.82;;;4.20;99.90;;;;;;4988592;28;20038;-50
2022/03/18 00:14:02;;;;;;;20.48;12.65;;;4.30;99.90;;;;;;4941960;28;20034;-48
2022/03/18 00:16:28;;;;;;;22.80;12.88;;;4.30;99.90;;;;;;4985731;28;20483;-51
2022/03/18 00:18:55;;;;;;;21.45;12.75;;;4.30;99.90;;;;;;4988519;28;20044;-54
2022/03/18 00:21:21;;;;;;;22.73;14.02;;;4.20;99.90;;;;;;4991660;28;20348;-54
2022/03/18 00:23:48;;;;;;;21.38;13.85;;;4.10;99.90;;;;;;4972897;28;20058;-51
2022/03/18 00:26:14;;;;;;;25.02;12.75;;;4.10;99.90;;;;;;4986882;28;20533;-50
2022/03/18 00:28:39;;;;;;;19.52;14.52;;;4.00;99.90;;;;;;4965676;28;20071;-55
2022/03/18 00:31:06;;;;;;;19.85;13.93;;;4.10;99.90;;;;;;4984148;28;20061;-50
2022/03/18 00:33:32;;;;;;;20.30;13.20;;;4.00;99.90;;;;;;4993360;28;20033;-51
2022/03/18 00:35:58;;;;;;;19.92;13.77;;;4.20;99.90;;;;;;4939607;28;20051;-49
2022/03/18 00:38:23;;;;;;;21.00;14.30;;;4.20;99.90;;;;;;4939707;28;20034;-53
2022/03/18 00:40:50;;;;;;;21.92;14.20;;;4.20;99.90;;;;;;4987425;28;20029;-51
2022/03/18 00:43:16;;;;;;;19.00;12.95;;;4.20;99.90;;;;;;4993571;28;20097;-53
2022/03/18 00:45:42;;;;;;;21.75;13.50;;;4.20;99.90;;;;;;4988012;28;20118;-49
2022/03/18 00:53:36;;;;;;;19.25;12.93;;;4.40;99.90;;;;;;4990741;28;20180;-53
2022/03/18 00:56:02;;;;;;;22.75;13.38;;;4.40;99.90;;;;;;4938493;28;20125;-52
2022/03/18 00:58:28;;;;;;;18.95;12.82;;;4.40;99.90;;;;;;4990265;28;20022;-49
2022/03/18 01:00:54;;;;;;;21.50;12.63;;;4.40;99.90;;;;;;4971673;28;20039;-54
2022/03/18 01:03:20;;;;;;;19.58;12.75;;;4.40;99.90;;;;;;4989037;28;20030;-56
2022/03/18 01:05:46;;;;;;;20.95;13.05;;;4.40;99.90;;;;;;4908546;28;20050;-53
2022/03/18 01:08:12;;;;;;;21.38;14.55;;;4.40;99.90;;;;;;4940691;28;20130;-56
2022/03/18 01:10:38;;;;;;;21.20;13.45;;;4.40;99.90;;;;;;4957476;28;20445;-56
2022/03/18 01:13:04;;;;;;;20.52;12.10;;;4.20;99.90;;;;;;4988530;28;20035;-51
2022/03/18 01:15:30;;;;;;;18.50;12.63;;;4.20;99.90;;;;;;4987976;28;20149;-50
2022/03/18 01:17:56;;;;;;;18.15;11.75;;;4.10;99.90;;;;;;4992020;28;20366;-51
2022/03/18 01:20:21;;;;;;;22.85;12.68;;;3.90;99.90;;;;;;4989797;28;20038;-52
2022/03/18 01:22:47;;;;;;;17.20;11.93;;;4.10;99.90;;;;;;4987984;28;20042;-51
2022/03/18 01:25:13;;;;;;;20.75;12.88;;;4.00;99.90;;;;;;4942870;28;20113;-56
2022/03/18 01:27:39;;;;;;;21.23;13.27;;;3.90;99.90;;;;;;4952841;28;20050;-51
2022/03/18 01:30:06;;;;;;;21.73;13.38;;;3.90;99.90;;;;;;4987345;28;20073;-53
2022/03/18 01:32:33;;;;;;;21.15;12.05;;;3.90;99.90;;;;;;4937802;28;20047;-49
2022/03/18 01:35:00;;;;;;;17.88;12.77;;;4.00;99.90;;;;;;4992746;28;20030;-49
2022/03/18 01:37:26;;;;;;;17.90;11.85;;;4.00;99.90;;;;;;4952727;28;20391;-51
2022/03/18 01:39:52;;;;;;;21.75;13.82;;;4.00;99.90;;;;;;4941161;28;20467;-51
2022/03/18 01:42:18;;;;;;;18.65;11.65;;;4.00;99.90;;;;;;4989096;28;20038;-47
2022/03/18 01:44:47;;;;;;;19.10;12.85;;;3.80;99.90;;;;;;4988103;28;20575;-49
2022/03/18 01:47:13;;;;;;;18.52;10.95;;;3.90;99.90;;;;;;4994042;28;20038;-51
2022/03/18 01:49:39;;;;;;;20.00;12.27;;;3.80;99.90;;;;;;4994520;28;20030;-52
2022/03/18 01:52:08;;;;;;;16.70;10.45;;;3.60;99.90;;;;;;4990568;28;20343;-56
2022/03/18 01:54:50;;;;;;;16.42;11.25;;;3.60;99.90;;;;;;4991488;28;20041;-55
2022/03/18 01:57:18;;;;;;;18.42;12.00;;;3.60;99.90;;;;;;4989031;28;20096;-52
2022/03/18 01:59:46;;;;;;;16.83;11.25;;;3.50;99.90;;;;;;4990509;28;20113;-50
2022/03/18 02:02:12;;;;;;;17.55;11.00;;;3.50;99.90;;;;;;4996387;28;20109;-53
2022/03/18 02:04:38;;;;;;;18.45;11.75;;;;;;;;;;4961367;28;20038;-53
2022/03/18 02:07:05;;;;;;;19.92;12.45;;;;;;;;;;4990458;28;20120;-50
2022/03/18 02:09:34;;;;;;;18.15;11.77;;;;;;;;;;4991796;28;20447;-56
2022/03/18 02:12:01;;;;;;;17.88;11.98;;;;;;;;;;4970535;28;21318;-55
2022/03/18 02:14:31;;;;;;;18.67;11.70;;;;;;;;;;4992830;28;20039;-56
2022/03/18 02:16:57;;;;;;;19.48;10.82;;;;;;;;;;4973292;28;20059;-55
2022/03/18 02:19:23;;;;;;;15.23;9.93;;;3.20;99.90;;;;;;4979901;28;20085;-52
2022/03/18 02:21:52;;;;;;;18.55;12.20;;;3.40;99.90;;;;;;4961439;28;20038;-55
2022/03/18 02:24:19;;;;;;;18.42;12.57;;;3.40;99.90;;;;;;4992255;28;20053;-47
2022/03/18 02:26:53;;;;;;;19.63;12.27;;;3.60;99.90;;;;;;4992689;28;20351;-52
2022/03/18 02:29:19;;;;;;;16.02;11.43;;;3.40;99.90;;;;;;4986683;28;20034;-52
2022/03/18 02:31:46;;;;;;;18.75;12.13;;;3.50;99.90;;;;;;4991500;28;20360;-51
2022/03/18 02:34:15;;;;;;;18.52;12.60;;;3.50;99.90;;;;;;4995703;28;20026;-54
2022/03/18 02:36:41;;;;;;;20.33;13.05;;;3.60;99.90;;;;;;4989861;28;20509;-49
2022/03/18 02:39:07;;;;;;;20.80;14.65;;;3.60;99.90;;;;;;4942569;28;20042;-52
2022/03/18 02:41:35;;;;;;;21.80;14.48;;;;;;;;;;4992322;28;20030;-55
2022/03/18 02:44:02;;;;;;;17.60;11.25;;;3.60;99.90;;;;;;4995282;28;20046;-55
2022/03/18 02:46:32;;;;;;;23.13;14.45;;;3.40;99.90;;;;;;4990340;28;20038;-57
2022/03/18 02:48:59;;;;;;;19.45;12.85;;;3.30;99.90;;;;;;4991518;28;20047;-52
2022/03/18 02:51:25;;;;;;;19.55;12.80;;;3.40;99.90;;;;;;4990335;28;20031;-53
2022/03/18 02:53:52;;;;;;;17.65;12.23;;;3.50;99.90;;;;;;4991516;28;20045;-50
2022/03/18 02:56:21;;;;;;;16.20;11.25;;;3.30;99.90;;;;;;4955422;28;20049;-56
2022/03/18 02:58:47;;;;;;;20.52;12.68;;;3.20;99.90;;;;;;4991739;28;20043;-49
2022/03/18 03:01:13;;;;;;;21.60;13.10;;;3.20;99.90;;;;;;4958363;28;20663;-50
2022/03/18 03:03:38;;;;;;;19.90;12.15;;;3.20;99.90;;;;;;4990264;28;20120;-52
2022/03/18 03:08:48;;;;;;;20.35;13.23;;;3.30;99.90;;;;;;4993565;28;20061;-53
2022/03/18 03:11:14;;;;;;;20.42;13.27;;;3.30;99.90;;;;;;4989902;28;20474;-50
2022/03/18 03:13:40;;;;;;;18.65;12.70;;;3.30;99.90;;;;;;4995282;28;20034;-51
2022/03/18 03:16:08;;;;;;;20.85;13.00;;;;;;;;;;4954180;28;20057;-58
2022/03/18 03:18:34;;;;;;;19.52;12.68;;;;;;;;;;4988857;28;20040;-51
2022/03/18 03:21:00;;;;;;;19.17;12.20;;;;;;;;;;4994283;28;20034;-49
2022/03/18 03:23:26;;;;;;;18.70;13.02;;;;;;;;;;4992715;28;20077;-46
2022/03/18 03:25:56;;;;;;;18.42;12.20;;;;;;;;;;4960994;28;20081;-52
2022/03/18 03:28:22;;;;;;;19.27;12.93;;;;;;;;;;4994749;28;20105;-61
2022/03/18 03:30:49;;;;;;;22.30;12.70;;;3.60;99.90;;;;;;4995567;28;20089;-53
2022/03/18 03:33:16;;;;;;;18.98;13.13;;;3.70;99.90;;;;;;4992910;28;20119;-50
2022/03/18 03:35:43;;;;;;;21.95;13.20;;;;;;;;;;4993811;28;20041;-51
2022/03/18 03:38:14;;;;;;;21.42;12.88;;;;;;;;;;4992520;28;20027;-52
2022/03/18 03:40:40;;;;;;;19.50;13.10;;;;;;;;;;4991677;28;20509;-50
2022/03/18 03:43:08;;;;;;;20.83;13.70;;;;;;;;;;4982339;28;20045;-55
2022/03/18 03:45:36;;;;;;;24.30;13.57;;;3.50;99.90;;;;;;4992056;28;20109;-53
2022/03/18 03:48:02;;;;;;;20.88;13.77;;;3.70;99.90;;;;;;5000511;28;20124;-59
2022/03/18 03:50:28;;;;;;;19.40;13.55;;;3.50;99.90;;;;;;4992214;28;20371;-52
2022/03/18 03:52:54;;;;;;;21.75;14.45;;;3.60;99.90;;;;;;4997610;28;20036;-53
2022/03/18 03:55:20;;;;;;;23.08;15.32;;;3.40;99.90;;;;;;4993965;28;20026;-53
2022/03/18 03:57:46;;;;;;;19.23;14.32;;;3.20;99.90;;;;;;4983910;28;20070;-52
2022/03/18 04:00:12;;;;;;;19.95;14.05;;;;;;;;;;4988238;28;20517;-57
2022/03/18 04:02:39;;;;;;;20.63;14.25;;;;;;;;;;4995347;28;20073;-52
2022/03/18 04:05:09;;;;;;;23.73;14.20;;;3.30;99.90;;;;;;4997687;28;20041;-53
2022/03/18 04:07:36;;;;;;;20.75;14.82;;;;;;;;;;4931235;28;20046;-49
2022/03/18 04:10:04;;;;;;;19.80;13.18;;;;;;;;;;4994012;28;20037;-57
2022/03/18 04:12:32;;;;;;;21.13;13.88;;;;;;;;;;4947318;28;20490;-57
2022/03/18 04:14:58;;;;;;;20.30;12.93;;;;;;;;;;4960183;28;20042;-50
2022/03/18 04:17:26;;;;;;;20.52;13.52;;;3.30;99.90;;;;;;4993473;28;20089;-60
2022/03/18 04:19:53;;;;;;;18.70;13.07;;;;;;;;;;4941959;28;20183;-62
2022/03/18 04:22:20;;;;;;;25.38;16.38;;;;;;;;;;4998540;28;20050;-52
2022/03/18 04:24:46;;;;;;;20.55;12.88;;;3.20;99.90;;;;;;4993129;28;20117;-57
2022/03/18 04:27:12;;;;;;;21.88;13.30;;;3.10;99.90;;;;;;4970800;28;20126;-51
2022/03/18 04:29:38;;;;;;;22.27;14.80;;;;;;;;;;4955814;28;20102;-51
2022/03/18 04:32:04;;;;;;;23.10;15.25;;;;;;;;;;4991529;28;20030;-51
2022/03/18 04:34:30;;;;;;;18.83;14.05;;;;;;;;;;4990463;28;20030;-55
2022/03/18 04:36:56;;;;;;;21.95;13.57;;;;;;;;;;4990991;28;20561;-54
2022/03/18 04:39:22;;;;;;;22.40;14.60;;;;;;;;;;4933933;28;20038;-53
2022/03/18 04:41:48;;;;;;;23.77;14.52;;;;;;;;;;4991586;28;20031;-48
2022/03/18 04:44:15;;;;;;;20.75;14.57;;;;;;;;;;4992126;28;20034;-51
2022/03/18 04:46:41;;;;;;;21.02;14.93;;;;;;;;;;4988937;28;20030;-54
2022/03/18 04:49:07;;;;;;;21.45;15.05;;;;;;;;;;4939817;28;20487;-57
2022/03/18 04:51:33;;;;;;;20.33;13.85;;;;;;;;;;4988288;28;20027;-55
2022/03/18 04:53:59;;;;;;;19.77;13.50;;;;;;;;;;4991602;28;20061;-50
2022/03/18 04:59:10;;;;;;;21.35;13.95;;;;;;;;;;4987903;28;20100;-52
2022/03/18 05:01:36;;;;;;;20.80;14.35;;;;;;;;;;4990596;28;20034;-50
2022/03/18 05:04:02;;;;;;;24.15;14.52;;;;;;;;;;4987491;28;20100;-52
2022/03/18 05:06:28;;;;;;;21.95;14.25;;;;;;;;;;4987741;28;20075;-52
2022/03/18 05:08:54;;;;;;;25.58;15.35;;;3.10;99.90;;;;;;4990207;28;20030;-49
2022/03/18 05:11:20;;;;;;;23.17;14.73;;;3.10;99.90;;;;;;4943344;28;20395;-53
2022/03/18 05:13:46;;;;;;;21.08;14.43;;;3.20;99.90;;;;;;4990483;28;20030;-50
2022/03/18 05:16:12;;;;;;;21.42;16.60;;;3.20;99.90;;;;;;4972102;28;20043;-54
2022/03/18 05:18:38;;;;;;;25.77;18.02;;;3.10;99.90;;;;;;4988934;28;20121;-50
2022/03/18 05:21:03;;;;;;;36.92;21.90;;;3.10;99.90;;;;;;4992611;28;20041;-51
2022/03/18 05:23:29;;;;;;;33.40;20.75;;;3.40;99.90;;;;;;4992923;28;20148;-53
2022/03/18 05:25:55;;;;;;;28.30;18.13;;;3.40;99.90;;;;;;4993859;28;20039;-53
2022/03/18 05:28:21;;;;;;;32.83;20.83;;;3.30;99.90;;;;;;4992998;28;20490;-55
2022/03/18 05:30:47;;;;;;;29.08;17.27;;;3.40;99.90;;;;;;4995358;28;20069;-53
2022/03/18 05:33:12;;;;;;;24.63;14.82;;;3.40;99.90;;;;;;4973183;28;20047;-50
2022/03/18 05:35:38;;;;;;;22.90;14.82;;;3.50;99.90;;;;;;4994915;28;20537;-50
2022/03/18 05:38:04;;;;;;;21.42;14.55;;;3.50;99.90;;;;;;4995213;28;20030;-53
2022/03/18 05:40:30;;;;;;;21.13;13.80;;;3.70;99.90;;;;;;4971268;28;20137;-54
2022/03/18 05:42:56;;;;;;;22.40;15.63;;;3.70;99.90;;;;;;4994075;28;20121;-50
2022/03/18 05:45:23;;;;;;;23.58;15.95;;;3.90;99.90;;;;;;4991899;28;20026;-55
2022/03/18 05:47:49;;;;;;;43.30;21.70;;;3.80;99.90;;;;;;4977280;28;20121;-56
2022/03/18 05:50:16;;;;;;;42.53;24.63;;;3.90;99.90;;;;;;4988885;28;20031;-47
2022/03/18 05:52:43;;;;;;;33.22;21.85;;;4.10;99.90;;;;;;4984523;28;20403;-50
2022/03/18 05:55:09;;;;;;;32.88;20.48;;;4.20;99.90;;;;;;4982469;28;20030;-53
2022/03/18 05:57:34;;;;;;;35.20;22.00;;;4.50;99.90;;;;;;4949585;28;20459;-52
2022/03/18 06:00:01;;;;;;;29.38;18.30;;;4.70;99.90;;;;;;4984305;28;20050;-49
2022/03/18 06:02:28;;;;;;;26.15;19.13;;;4.60;99.90;;;;;;4992410;28;20050;-53
2022/03/18 06:04:54;;;;;;;28.40;19.30;;;4.40;99.90;;;;;;4989075;28;20031;-51
2022/03/18 06:07:20;;;;;;;45.40;31.63;;;4.60;99.90;;;;;;4992045;28;20038;-53
2022/03/18 06:12:30;;;;;;;26.35;16.20;;;4.50;99.90;;;;;;4989254;28;20042;-53
2022/03/18 06:14:55;;;;;;;26.85;17.05;;;4.30;99.90;;;;;;4991434;28;20039;-51
2022/03/18 06:17:21;;;;;;;24.90;15.85;;;4.20;99.90;;;;;;4990932;28;20490;-48
2022/03/18 06:19:47;;;;;;;20.73;15.18;;;4.20;99.90;;;;;;4989451;28;20686;-54
2022/03/18 06:22:13;;;;;;;23.92;14.45;;;4.20;99.90;;;;;;4993491;28;20121;-55
2022/03/18 06:24:38;;;;;;;23.58;15.30;;;4.50;99.90;;;;;;4993764;28;20034;-51
2022/03/18 06:27:05;;;;;;;22.30;15.00;;;4.20;99.90;;;;;;4986929;28;20045;-53
2022/03/18 06:29:31;;;;;;;21.00;14.60;;;4.40;99.90;;;;;;4967230;28;20039;-54
2022/03/18 06:31:59;;;;;;;22.35;15.98;;;4.20;99.90;;;;;;4992335;28;20037;-58
2022/03/18 06:34:26;;;;;;;28.15;18.55;;;;;;;;;;4984630;28;20063;-55
2022/03/18 06:36:54;;;;;;;23.25;16.25;;;4.80;99.90;;;;;;4995958;28;20030;-52
2022/03/18 06:39:22;;;;;;;23.00;15.70;;;5.10;99.90;;;;;;4960683;28;20038;-54
2022/03/18 06:41:48;;;;;;;23.27;16.60;;;5.30;99.90;;;;;;4992950;28;20393;-52
2022/03/18 06:44:15;;;;;;;30.55;17.35;;;5.50;99.90;;;;;;4993533;28;20039;-59
2022/03/18 06:46:41;;;;;;;25.35;15.45;;;5.60;99.90;;;;;;4992479;28;20026;-53
2022/03/18 06:49:07;;;;;;;27.13;15.35;;;5.70;99.90;;;;;;4917659;28;20045;-53
2022/03/18 06:51:34;;;;;;;20.08;13.68;;;5.90;99.90;;;;;;4957647;28;20383;-56
2022/03/18 06:53:59;;;;;;;28.63;15.80;;;5.80;99.90;;;;;;4995836;28;20460;-52
2022/03/18 06:56:27;;;;;;;17.27;12.88;;;6.40;99.90;;;;;;4992329;28;20066;-55
2022/03/18 06:58:53;;;;;;;20.08;12.60;;;6.40;99.90;;;;;;4971658;28;20058;-55
2022/03/18 07:01:21;;;;;;;14.80;11.35;;;6.50;99.90;;;;;;4960266;28;20046;-54
2022/03/18 07:03:48;;;;;;;16.40;12.15;;;6.40;99.90;;;;;;4992525;28;20490;-53
2022/03/18 07:06:13;;;;;;;14.88;10.73;;;6.30;99.90;;;;;;4992092;28;20066;-56
2022/03/18 07:08:39;;;;;;;15.23;9.98;;;6.10;99.90;;;;;;4939544;28;20070;-57
2022/03/18 07:11:05;;;;;;;10.30;5.80;;;6.10;99.90;;;;;;4985143;28;20054;-55
2022/03/18 07:13:31;;;;;;;15.02;10.05;;;5.80;99.90;;;;;;4944648;28;20038;-52
2022/03/18 07:18:42;;;;;;;13.73;7.38;;;6.00;99.90;;;;;;4989966;28;20045;-52
2022/03/18 07:21:08;;;;;;;12.80;9.05;;;5.90;99.90;;;;;;4992405;28;20034;-56
2022/03/18 07:23:34;;;;;;;10.73;6.93;;;5.70;99.90;;;;;;4985960;28;20058;-54
2022/03/18 07:25:59;;;;;;;13.07;9.57;;;5.70;99.90;;;;;;4975665;28;20038;-54
2022/03/18 07:28:25;;;;;;;15.13;10.82;;;5.80;99.90;;;;;;4990886;28;20109;-55
2022/03/18 07:30:51;;;;;;;15.77;11.05;;;6.10;99.90;;;;;;4990634;28;20023;-52
2022/03/18 07:33:17;;;;;;;16.15;11.25;;;6.40;99.90;;;;;;4942256;28;20038;-56
2022/03/18 07:35:43;;;;;;;18.77;11.20;;;6.60;99.90;;;;;;4989728;28;20037;-53
2022/03/18 07:38:09;;;;;;;15.07;10.38;;;6.80;99.90;;;;;;4974377;28;20474;-52
2022/03/18 07:40:39;;;;;;;11.82;8.20;;;7.00;99.90;;;;;;4990011;28;20050;-55
2022/03/18 07:43:06;;;;;;;13.82;10.13;;;7.30;99.90;;;;;;4971292;28;20130;-53
2022/03/18 07:45:34;;;;;;;12.35;8.93;;;7.70;99.90;;;;;;4944229;28;20402;-54
2022/03/18 07:48:02;;;;;;;12.95;9.85;;;7.70;99.90;;;;;;4960020;28;20105;-53
2022/03/18 07:50:30;;;;;;;15.52;11.07;;;;;;;;;;4988243;28;20142;-53
2022/03/18 07:52:57;;;;;;;15.70;10.93;;;;;;;;;;4992727;28;20375;-53
2022/03/18 07:55:25;;;;;;;15.40;10.88;;;;;;;;;;4992060;28;20026;-53
2022/03/18 07:57:51;;;;;;;14.18;8.25;;;;;;;;;;4991875;28;20097;-57
2022/03/18 08:00:18;;;;;;;10.52;6.28;;;;;;;;;;4988744;28;20034;-51
2022/03/18 08:02:45;;;;;;;12.98;8.88;;;;;;;;;;4993607;28;20366;-50
2022/03/18 08:05:11;;;;;;;10.43;6.85;;;;;;;;;;4988935;28;20037;-53
2022/03/18 08:07:39;;;;;;;15.95;10.93;;;;;;;;;;4989527;28;20717;-55
2022/03/18 08:10:06;;;;;;;12.70;8.60;;;;;;;;;;4989058;28;20410;-55
2022/03/18 08:12:32;;;;;;;13.13;9.70;;;;;;;;;;4973201;28;20038;-49
2022/03/18 08:14:59;;;;;;;10.27;7.18;;;;;;;;;;4990266;28;20356;-55
2022/03/18 08:17:25;;;;;;;12.80;10.02;;;;;;;;;;4987247;28;20402;-52
2022/03/18 08:19:52;;;;;;;13.77;9.73;;;;;;;;;;4988016;28;20133;-57
2022/03/18 08:22:21;;;;;;;9.02;5.55;;;8.60;99.90;;;;;;4987948;28;20042;-51
2022/03/18 08:24:48;;;;;;;14.52;10.15;;;7.80;99.90;;;;;;4988675;28;20074;-54
2022/03/18 08:27:14;;;;;;;13.75;9.02;;;8.10;99.90;;;;;;4992266;28;20030;-53
2022/03/18 08:29:43;;;;;;;10.35;7.45;;;8.40;99.90;;;;;;4959338;28;20038;-52
2022/03/18 08:32:12;;;;;;;10.32;7.13;;;;;;;;;;4954045;28;20101;-52
2022/03/18 08:34:37;;;;;;;10.90;7.63;;;8.30;99.90;;;;;;4991657;28;20038;-52
2022/03/18 08:37:05;;;;;;;10.48;8.13;;;;;;;;;;4992825;28;20110;-57
2022/03/18 08:39:35;;;;;;;10.52;8.27;;;9.00;99.90;;;;;;4991298;28;20414;-53
2022/03/18 08:42:01;;;;;;;11.35;8.48;;;;;;;;;;4987864;28;20042;-53
2022/03/18 08:44:27;;;;;;;13.23;9.25;;;;;;;;;;4975165;28;20474;-51
2022/03/18 08:46:53;;;;;;;13.20;8.93;;;9.40;99.90;;;;;;4981702;28;20035;-50
2022/03/18 08:49:19;;;;;;;13.48;9.70;;;9.30;99.90;;;;;;4945764;28;20456;-51
2022/03/18 08:51:45;;;;;;;13.05;8.32;;;9.10;99.90;;;;;;4981534;28;20031;-52
2022/03/18 08:54:10;;;;;;;7.75;5.57;;;9.10;99.90;;;;;;4949375;28;20039;-50
2022/03/18 08:56:36;;;;;;;15.07;10.43;;;8.60;99.90;;;;;;4990906;28;20479;-49
2022/03/18 08:59:06;;;;;;;25.10;17.45;;;8.50;99.90;;;;;;4982292;28;20076;-52
2022/03/18 09:01:34;;;;;;;24.63;16.17;;;8.80;99.90;;;;;;4985069;28;20042;-47
2022/03/18 09:04:00;;;;;;;20.05;14.25;;;9.10;99.90;;;;;;4987346;28;20054;-50
2022/03/18 09:06:26;;;;;;;23.95;15.18;;;9.90;99.90;;;;;;4987586;28;20039;-50
2022/03/18 09:08:52;;;;;;;17.75;10.98;;;10.20;99.90;;;;;;4984760;28;20030;-51
2022/03/18 09:11:18;;;;;;;15.27;10.45;;;10.10;99.90;;;;;;4984682;28;20109;-51
2022/03/18 09:13:44;;;;;;;16.30;11.73;;;10.20;99.90;;;;;;4988746;28;20137;-51
2022/03/18 09:16:11;;;;;;;17.83;12.10;;;;;;;;;;4979209;28;20051;-50
2022/03/18 09:18:39;;;;;;;23.23;9.45;;;10.70;99.40;;;;;;4957698;28;20471;-50
2022/03/18 09:21:04;;;;;;;19.38;11.95;;;10.30;98.50;;;;;;4993655;28;20030;-52
2022/03/18 09:23:31;;;;;;;16.10;9.85;;;;;;;;;;4989153;28;20053;-53
2022/03/18 09:25:57;;;;;;;12.40;9.32;;;;;;;;;;4989206;28;20066;-53
2022/03/18 09:28:23;;;;;;;12.25;9.15;;;11.50;99.90;;;;;;4976515;28;20093;-52
2022/03/18 09:30:49;;;;;;;12.63;9.05;;;10.90;98.80;;;;;;4986700;28;20030;-54
2022/03/18 09:33:15;;;;;;;17.83;9.95;;;11.60;97.80;;;;;;4984608;28;20077;-52
2022/03/18 09:35:43;;;;;;;18.40;9.90;;;;;;;;;;4951030;28;20070;-51
2022/03/18 09:38:09;;;;;;;7.75;5.32;;;;;;;;;;4952416;28;20121;-51
2022/03/18 09:40:35;;;;;;;13.57;9.10;;;10.90;99.90;;;;;;4983783;28;20027;-53
2022/03/18 09:43:01;;;;;;;14.25;10.07;;;;;;;;;;4933756;28;20043;-53
2022/03/18 09:45:30;;;;;;;11.73;7.78;;;11.40;99.90;;;;;;4973011;28;20046;-52
2022/03/18 09:48:00;;;;;;;13.25;8.77;;;11.10;99.90;;;;;;4986479;28;20034;-54
2022/03/18 09:50:27;;;;;;;11.95;7.30;;;11.20;99.90;;;;;;4983966;28;20478;-52
2022/03/18 09:52:52;;;;;;;13.55;9.07;;;11.20;99.90;;;;;;4960928;28;20482;-54
2022/03/18 09:55:19;;;;;;;14.15;10.07;;;;;;;;;;4972828;28;20046;-55
2022/03/18 09:57:44;;;;;;;11.32;8.25;;;12.20;99.90;;;;;;4982652;28;20097;-52
2022/03/18 10:00:11;;;;;;;17.00;10.15;;;11.30;99.90;;;;;;4948906;28;20042;-52
2022/03/18 10:02:37;;;;;;;10.23;6.00;;;11.70;99.90;;;;;;4987539;28;20340;-50
2022/03/18 10:05:10;;;;;;;10.68;7.05;;;11.20;99.90;;;;;;4949007;28;20077;-55
2022/03/18 10:07:36;;;;;;;12.95;8.63;;;10.50;99.90;;;;;;4931939;29;20115;-49
2022/03/18 10:10:10;;;;;;;14.88;9.75;;;11.00;99.90;;;;;;4934326;29;20090;-54
2022/03/18 10:12:37;;;;;;;12.18;8.93;;;11.30;99.90;;;;;;4900222;29;20629;-54
2022/03/18 10:15:18;;;;;;;13.13;9.63;;;11.70;99.90;;;;;;4936528;29;20148;-52
2022/03/18 10:17:52;;;;;;;11.90;7.80;;;11.70;99.90;;;;;;4915891;29;20168;-50
2022/03/18 10:20:30;;;;;;;12.88;9.55;;;11.10;92.50;;;;;;4934498;29;20127;-49
2022/03/18 10:23:19;;;;;;;12.90;8.82;;;11.50;99.90;;;;;;4900346;29;20496;-51
2022/03/18 10:25:51;;;;;;;17.15;10.07;;;11.40;99.90;;;;;;4933826;29;20510;-54
2022/03/18 10:28:37;;;;;;;13.70;9.13;;;11.80;99.90;;;;;;4933413;29;20483;-50
2022/03/18 10:31:20;;;;;;;14.10;9.20;;;11.20;92.70;;;;;;4934377;29;20091;-51
2022/03/18 10:39:51;;;;;;;11.85;8.25;;;12.20;99.90;;;;;;4930889;29;20051;-50
2022/03/18 10:42:20;;;;;;;12.73;8.40;;;12.40;99.90;;;;;;4928361;29;20047;-52
2022/03/18 10:44:55;;;;;;;13.00;8.30;;;12.50;99.90;;;;;;4953027;28;20045;-52
2022/03/18 10:47:27;;;;;;;11.52;8.23;;;12.40;99.90;;;;;;4954572;28;20050;-49
2022/03/18 10:50:11;;;;;;;11.60;7.70;;;12.20;90.50;;;;;;4990094;28;20059;-54
2022/03/18 10:52:38;;;;;;;11.73;8.02;;;12.20;90.70;;;;;;4986835;28;20026;-53
2022/03/18 10:55:29;;;;;;;10.32;6.90;;;12.40;90.00;;;;;;4982995;28;20031;-52
2022/03/18 10:58:04;;;;;;;10.73;7.85;;;11.60;90.00;;;;;;4985241;28;20047;-52
2022/03/18 11:00:31;;;;;;;11.90;9.15;;;11.60;90.70;;;;;;4989756;28;20097;-51
2022/03/18 11:02:58;;;;;;;11.63;7.43;;;;;;;;;;4985296;28;20105;-53
2022/03/18 11:05:35;;;;;;;10.60;8.30;;;12.90;96.50;;;;;;4979058;28;20042;-53
2022/03/18 11:08:02;;;;;;;13.13;8.07;;;;;;;;;;4951689;28;20065;-53
2022/03/18 11:13:14;;;;;;;10.05;7.40;;;;;;;;;;4990257;28;20355;-50
2022/03/18 11:15:44;;;;;;;9.32;6.32;;;12.90;99.90;;;;;;4988060;28;20741;-50
2022/03/18 11:18:13;;;;;;;11.40;8.10;;;12.70;88.90;;;;;;4954476;28;20038;-50
2022/03/18 11:20:43;;;;;;;11.98;7.57;;;12.80;88.90;;;;;;4979663;28;20046;-50
2022/03/18 11:23:21;;;;;;;9.40;6.82;;;12.80;87.00;;;;;;4925057;29;20047;-50
2022/03/18 11:25:48;;;;;;;9.77;7.85;;;;;;;;;;4900893;29;20067;-49
2022/03/18 11:28:19;;;;;;;9.95;7.10;;;13.50;97.50;;;;;;4921204;29;20480;-51
2022/03/18 11:30:49;;;;;;;9.35;6.70;;;13.20;85.80;;;;;;4923041;29;20048;-51
2022/03/18 11:33:15;;;;;;;10.15;7.43;;;13.70;99.40;;;;;;4931642;29;20046;-50
2022/03/18 11:35:52;;;;;;;10.98;7.47;;;14.40;85.90;;;;;;4925578;29;20400;-51
2022/03/18 11:38:31;;;;;;;11.10;7.00;;;14.60;85.20;;;;;;4927523;29;20036;-50
2022/03/18 11:41:02;;;;;;;9.57;6.13;;;14.40;82.90;;;;;;4928986;29;20063;-50
2022/03/18 11:43:41;;;;;;;8.82;7.15;;;13.80;83.20;;;;;;4931705;29;20091;-51
2022/03/18 11:46:13;;;;;;;12.38;7.22;;;14.10;82.60;;;;;;4927835;29;20032;-45
2022/03/18 11:48:51;;;;;;;9.32;7.03;;;14.40;81.40;;;;;;4928661;29;20039;-53
2022/03/18 11:51:31;;;;;;;10.07;4.78;;;14.60;81.30;;;;;;4899843;29;20040;-51
2022/03/18 11:53:59;;;;;;;7.10;5.70;;;13.20;80.80;;;;;;4947088;28;20122;-51
2022/03/18 11:56:46;;;;;;;10.05;6.68;;;12.90;80.90;;;;;;4980989;28;20034;-50
2022/03/18 11:59:24;;;;;;;9.85;6.22;;;13.70;82.30;;;;;;4982210;28;20190;-51
2022/03/18 12:02:01;;;;;;;9.38;5.95;;;13.90;80.50;;;;;;4956644;28;20034;-50
2022/03/18 12:04:33;;;;;;;9.60;6.53;;;14.40;79.50;;;;;;4985045;28;20375;-53
2022/03/18 12:07:15;;;;;;;8.38;6.03;;;14.40;79.60;;;;;;4956318;28;20112;-47
2022/03/18 12:10:00;;;;;;;10.27;6.75;;;14.90;79.80;;;;;;4983879;28;20126;-52
2022/03/18 12:12:28;;;;;;;8.43;6.88;;;;;;;;;;4983231;28;20043;-50
2022/03/18 12:14:56;;;;;;;8.57;6.82;;;15.30;80.00;;;;;;4986325;28;20043;-47
2022/03/18 12:17:22;;;;;;;10.48;5.57;;;15.60;79.80;;;;;;4985898;28;20042;-45
2022/03/18 12:19:56;;;;;;;8.32;5.10;;;15.10;77.20;;;;;;4982843;28;20552;-49
2022/03/18 12:22:24;;;;;;;9.23;5.78;;;13.70;77.40;;;;;;4987677;28;20034;-49
2022/03/18 12:24:54;;;;;;;8.15;5.95;;;13.90;83.90;;;;;;4977901;28;20482;-51
2022/03/18 12:27:22;;;;;;;8.05;5.55;;;13.90;76.70;;;;;;4976710;28;20042;-53
2022/03/18 12:29:48;;;;;;;10.65;6.47;;;14.00;77.10;;;;;;4972271;28;20490;-50
2022/03/18 12:32:16;;;;;;;6.00;4.63;;;14.00;76.60;;;;;;4946424;28;20038;-57
2022/03/18 12:34:53;;;;;;;8.13;6.57;;;14.00;75.50;;;;;;4982321;28;20505;-52
2022/03/18 12:37:24;;;;;;;10.95;6.80;;;14.20;77.20;;;;;;4980525;28;20558;-48
2022/03/18 12:40:17;;;;;;;8.57;5.97;;;14.60;76.80;;;;;;4978369;28;20557;-51
2022/03/18 12:42:49;;;;;;;6.78;4.70;;;13.90;74.70;;;;;;4982240;28;20149;-48
2022/03/18 12:45:29;;;;;;;10.45;5.95;;;13.60;75.60;;;;;;4940444;28;20053;-47
2022/03/18 12:48:05;;;;;;;9.52;4.93;;;13.50;79.70;;;;;;4984388;28;20062;-46
2022/03/18 12:50:39;;;;;;;9.77;5.90;;;13.20;75.00;;;;;;4985568;28;20039;-50
2022/03/18 12:53:25;;;;;;;10.27;6.50;;;13.20;75.70;;;;;;4982218;28;20037;-49
2022/03/18 12:55:56;;;;;;;10.15;6.13;;;13.30;76.50;;;;;;4975139;28;20466;-49
2022/03/18 12:58:24;;;;;;;9.15;7.07;;;13.30;76.50;;;;;;4988830;28;20034;-47
2022/03/18 13:00:54;;;;;;;9.20;6.82;;;13.60;77.00;;;;;;4990191;28;20077;-46
2022/03/18 13:03:28;;;;;;;10.10;6.28;;;13.60;77.00;;;;;;4982985;28;20132;-47
2022/03/18 13:06:08;;;;;;;8.50;6.32;;;13.40;74.60;;;;;;4987089;28;20034;-48
2022/03/18 13:08:34;;;;;;;10.10;6.93;;;13.80;75.00;;;;;;4987011;28;20057;-52
2022/03/18 13:11:03;;;;;;;8.57;5.30;;;14.10;75.60;;;;;;4980620;28;20487;-53
2022/03/18 13:13:30;;;;;;;8.38;6.80;;;13.60;74.80;;;;;;4982979;28;20375;-50
2022/03/18 13:16:01;;;;;;;10.88;7.43;;;13.40;73.80;;;;;;4986151;28;20133;-49
2022/03/18 13:18:32;;;;;;;10.50;6.80;;;13.10;73.30;;;;;;4987365;28;20035;-49
2022/03/18 13:21:00;;;;;;;13.15;7.90;;;13.90;81.40;;;;;;4987943;28;20022;-50
2022/03/18 13:23:26;;;;;;;9.70;6.97;;;14.00;73.90;;;;;;4989601;28;20506;-51
2022/03/18 13:25:53;;;;;;;9.50;6.85;;;;;;;;;;4949183;28;20394;-56
2022/03/18 13:28:19;;;;;;;16.80;9.27;;;;;;;;;;4985776;28;20117;-51
2022/03/18 13:33:44;;;;;;;20.52;10.65;;;;;;;;;;4985237;28;20135;-58